Terminal Aerodrome Forecast
Issued by NWS

Home | Current Version | Previous Version | Text Only | Print | Product List | Glossary On
Versions: 1 2 3 4 5 6 7 8 9 10 11 12 13 14 15 16 17 18 19 20 21
000
FTAK31 PAJN 171127
TAFAKT
TAF
PAKT 171127Z 1712/1812 17005KT P6SM FEW006 OVC016
      TEMPO 1712/1716 4SM BR OVC004
     FM171600 21005KT 6SM -RA OVC035
     FM172100 16005KT P6SM -RA OVC025
     FM180000 15010KT 5SM -RA BR SCT007 OVC025
     FM180600 15010G20KT 4SM -RA BR OVC025 WS020/13035KT
      AMD LTD TO CLD VIS AND WIND 1712/1715=

USA.gov is the U.S. government's official web portal to all federal, state and local government web resources and services.